sensor_id;sensor_type;location;lat;lon;timestamp;P1;durP1;ratioP1;P2;durP2;ratioP2
42096;SDS011;27754;45.414;11.084;2023-03-03T00:00:08;8.27;;;5.82;;
42096;SDS011;27754;45.414;11.084;2023-03-03T00:02:38;8.68;;;5.20;;
42096;SDS011;27754;45.414;11.084;2023-03-03T00:05:06;8.90;;;5.32;;
42096;SDS011;27754;45.414;11.084;2023-03-03T00:07:33;10.38;;;5.55;;
42096;SDS011;27754;45.414;11.084;2023-03-03T00:10:00;10.13;;;6.18;;
42096;SDS011;27754;45.414;11.084;2023-03-03T00:12:28;8.32;;;5.60;;
42096;SDS011;27754;45.414;11.084;2023-03-03T00:14:56;8.20;;;5.78;;
42096;SDS011;27754;45.414;11.084;2023-03-03T00:17:24;9.13;;;6.93;;
42096;SDS011;27754;45.414;11.084;2023-03-03T00:19:53;12.65;;;6.25;;
42096;SDS011;27754;45.414;11.084;2023-03-03T00:22:26;11.68;;;6.47;;
42096;SDS011;27754;45.414;11.084;2023-03-03T00:25:23;10.52;;;6.43;;
42096;SDS011;27754;45.414;11.084;2023-03-03T00:30:58;9.75;;;5.97;;
42096;SDS011;27754;45.414;11.084;2023-03-03T00:33:31;10.90;;;5.82;;
42096;SDS011;27754;45.414;11.084;2023-03-03T00:36:10;10.45;;;5.72;;
42096;SDS011;27754;45.414;11.084;2023-03-03T00:38:59;10.63;;;7.00;;
42096;SDS011;27754;45.414;11.084;2023-03-03T00:41:56;10.48;;;5.88;;
42096;SDS011;27754;45.414;11.084;2023-03-03T00:52:50;9.40;;;6.10;;
42096;SDS011;27754;45.414;11.084;2023-03-03T00:55:26;8.18;;;5.80;;
42096;SDS011;27754;45.414;11.084;2023-03-03T00:57:53;9.25;;;5.72;;
42096;SDS011;27754;45.414;11.084;2023-03-03T01:00:25;10.73;;;5.45;;
42096;SDS011;27754;45.414;11.084;2023-03-03T01:02:51;7.00;;;5.38;;
42096;SDS011;27754;45.414;11.084;2023-03-03T01:05:19;11.23;;;5.85;;
42096;SDS011;27754;45.414;11.084;2023-03-03T01:07:47;7.85;;;5.68;;
42096;SDS011;27754;45.414;11.084;2023-03-03T01:10:15;7.07;;;5.70;;
42096;SDS011;27754;45.414;11.084;2023-03-03T01:12:42;7.93;;;5.72;;
42096;SDS011;27754;45.414;11.084;2023-03-03T01:15:09;9.30;;;4.95;;
42096;SDS011;27754;45.414;11.084;2023-03-03T01:17:39;8.40;;;5.60;;
42096;SDS011;27754;45.414;11.084;2023-03-03T01:20:07;9.05;;;5.63;;
42096;SDS011;27754;45.414;11.084;2023-03-03T01:22:36;9.68;;;5.10;;
42096;SDS011;27754;45.414;11.084;2023-03-03T01:25:03;8.23;;;4.75;;
42096;SDS011;27754;45.414;11.084;2023-03-03T01:27:30;8.73;;;5.20;;
42096;SDS011;27754;45.414;11.084;2023-03-03T01:29:57;9.27;;;4.70;;
42096;SDS011;27754;45.414;11.084;2023-03-03T01:32:25;10.05;;;5.38;;
42096;SDS011;27754;45.414;11.084;2023-03-03T01:34:53;12.38;;;5.45;;
42096;SDS011;27754;45.414;11.084;2023-03-03T01:37:20;7.70;;;4.65;;
42096;SDS011;27754;45.414;11.084;2023-03-03T01:39:53;7.53;;;5.03;;
42096;SDS011;27754;45.414;11.084;2023-03-03T01:42:20;9.70;;;5.55;;
42096;SDS011;27754;45.414;11.084;2023-03-03T01:44:48;8.18;;;4.85;;
42096;SDS011;27754;45.414;11.084;2023-03-03T01:47:35;9.30;;;5.28;;
42096;SDS011;27754;45.414;11.084;2023-03-03T01:50:05;7.50;;;5.40;;
42096;SDS011;27754;45.414;11.084;2023-03-03T01:55:14;7.82;;;4.53;;
42096;SDS011;27754;45.414;11.084;2023-03-03T01:57:48;8.43;;;4.25;;
42096;SDS011;27754;45.414;11.084;2023-03-03T02:00:23;10.43;;;4.90;;
42096;SDS011;27754;45.414;11.084;2023-03-03T02:02:51;6.22;;;4.53;;
42096;SDS011;27754;45.414;11.084;2023-03-03T02:05:20;7.18;;;3.83;;
42096;SDS011;27754;45.414;11.084;2023-03-03T02:07:49;8.45;;;4.70;;
42096;SDS011;27754;45.414;11.084;2023-03-03T02:10:17;8.30;;;4.35;;
42096;SDS011;27754;45.414;11.084;2023-03-03T02:12:56;7.75;;;4.40;;
42096;SDS011;27754;45.414;11.084;2023-03-03T02:15:24;9.80;;;4.53;;
42096;SDS011;27754;45.414;11.084;2023-03-03T02:17:56;10.35;;;4.25;;
42096;SDS011;27754;45.414;11.084;2023-03-03T02:20:31;5.90;;;3.90;;
42096;SDS011;27754;45.414;11.084;2023-03-03T02:26:09;6.30;;;4.05;;
42096;SDS011;27754;45.414;11.084;2023-03-03T02:28:39;6.90;;;4.25;;
42096;SDS011;27754;45.414;11.084;2023-03-03T02:31:13;6.35;;;4.13;;
42096;SDS011;27754;45.414;11.084;2023-03-03T02:33:43;7.25;;;4.90;;
42096;SDS011;27754;45.414;11.084;2023-03-03T02:36:17;8.20;;;4.40;;
42096;SDS011;27754;45.414;11.084;2023-03-03T02:44:23;7.47;;;4.82;;
42096;SDS011;27754;45.414;11.084;2023-03-03T02:46:52;8.85;;;4.97;;
42096;SDS011;27754;45.414;11.084;2023-03-03T02:49:21;8.32;;;4.90;;
42096;SDS011;27754;45.414;11.084;2023-03-03T02:51:53;8.25;;;5.15;;
42096;SDS011;27754;45.414;11.084;2023-03-03T02:54:21;11.30;;;5.25;;
42096;SDS011;27754;45.414;11.084;2023-03-03T02:56:50;9.20;;;4.80;;
42096;SDS011;27754;45.414;11.084;2023-03-03T02:59:17;6.25;;;4.45;;
42096;SDS011;27754;45.414;11.084;2023-03-03T03:01:48;6.25;;;4.60;;
42096;SDS011;27754;45.414;11.084;2023-03-03T03:04:19;7.65;;;5.20;;
42096;SDS011;27754;45.414;11.084;2023-03-03T03:06:51;10.38;;;5.18;;
42096;SDS011;27754;45.414;11.084;2023-03-03T03:09:20;11.80;;;6.22;;
42096;SDS011;27754;45.414;11.084;2023-03-03T03:11:51;8.07;;;4.20;;
42096;SDS011;27754;45.414;11.084;2023-03-03T03:14:21;7.90;;;4.60;;
42096;SDS011;27754;45.414;11.084;2023-03-03T03:16:50;8.10;;;4.35;;
42096;SDS011;27754;45.414;11.084;2023-03-03T03:19:18;6.25;;;4.68;;
42096;SDS011;27754;45.414;11.084;2023-03-03T03:21:46;7.55;;;4.47;;
42096;SDS011;27754;45.414;11.084;2023-03-03T03:24:13;12.27;;;5.00;;
42096;SDS011;27754;45.414;11.084;2023-03-03T03:26:46;8.75;;;5.80;;
42096;SDS011;27754;45.414;11.084;2023-03-03T03:29:13;9.25;;;4.72;;
42096;SDS011;27754;45.414;11.084;2023-03-03T03:31:40;8.18;;;4.70;;
42096;SDS011;27754;45.414;11.084;2023-03-03T03:34:09;11.48;;;6.00;;
42096;SDS011;27754;45.414;11.084;2023-03-03T03:36:36;8.18;;;5.10;;
42096;SDS011;27754;45.414;11.084;2023-03-03T03:39:06;10.75;;;5.85;;
42096;SDS011;27754;45.414;11.084;2023-03-03T03:41:36;7.47;;;4.85;;
42096;SDS011;27754;45.414;11.084;2023-03-03T03:44:04;8.98;;;5.60;;
42096;SDS011;27754;45.414;11.084;2023-03-03T03:46:31;6.80;;;4.15;;
42096;SDS011;27754;45.414;11.084;2023-03-03T03:48:58;5.40;;;3.67;;
42096;SDS011;27754;45.414;11.084;2023-03-03T03:51:25;6.28;;;3.95;;
42096;SDS011;27754;45.414;11.084;2023-03-03T03:53:52;7.28;;;4.10;;
42096;SDS011;27754;45.414;11.084;2023-03-03T03:56:19;9.43;;;3.90;;
42096;SDS011;27754;45.414;11.084;2023-03-03T03:58:50;8.15;;;3.92;;
42096;SDS011;27754;45.414;11.084;2023-03-03T04:01:17;9.68;;;4.55;;
42096;SDS011;27754;45.414;11.084;2023-03-03T04:03:47;7.88;;;4.47;;
42096;SDS011;27754;45.414;11.084;2023-03-03T04:06:17;9.82;;;4.47;;
42096;SDS011;27754;45.414;11.084;2023-03-03T04:08:45;8.32;;;4.15;;
42096;SDS011;27754;45.414;11.084;2023-03-03T04:11:14;7.70;;;4.18;;
42096;SDS011;27754;45.414;11.084;2023-03-03T04:13:41;11.80;;;4.50;;
42096;SDS011;27754;45.414;11.084;2023-03-03T04:16:10;8.73;;;4.10;;
42096;SDS011;27754;45.414;11.084;2023-03-03T04:18:40;10.68;;;5.22;;
42096;SDS011;27754;45.414;11.084;2023-03-03T04:21:11;8.90;;;4.70;;
42096;SDS011;27754;45.414;11.084;2023-03-03T04:23:39;9.13;;;4.35;;
42096;SDS011;27754;45.414;11.084;2023-03-03T04:26:07;7.60;;;4.80;;
42096;SDS011;27754;45.414;11.084;2023-03-03T04:28:34;7.38;;;4.40;;
42096;SDS011;27754;45.414;11.084;2023-03-03T04:31:02;5.70;;;4.18;;
42096;SDS011;27754;45.414;11.084;2023-03-03T04:33:31;7.00;;;4.70;;
42096;SDS011;27754;45.414;11.084;2023-03-03T04:35:59;13.88;;;5.35;;
42096;SDS011;27754;45.414;11.084;2023-03-03T04:38:26;10.35;;;5.70;;
42096;SDS011;27754;45.414;11.084;2023-03-03T04:40:55;8.05;;;4.82;;
42096;SDS011;27754;45.414;11.084;2023-03-03T04:43:24;9.80;;;6.07;;
42096;SDS011;27754;45.414;11.084;2023-03-03T04:45:52;8.85;;;5.25;;
42096;SDS011;27754;45.414;11.084;2023-03-03T04:48:20;8.50;;;5.72;;
42096;SDS011;27754;45.414;11.084;2023-03-03T04:50:47;11.32;;;6.63;;
42096;SDS011;27754;45.414;11.084;2023-03-03T04:53:14;7.85;;;5.75;;
42096;SDS011;27754;45.414;11.084;2023-03-03T04:55:42;9.57;;;5.63;;
42096;SDS011;27754;45.414;11.084;2023-03-03T04:58:09;9.95;;;5.68;;
42096;SDS011;27754;45.414;11.084;2023-03-03T05:00:37;17.58;;;6.55;;
42096;SDS011;27754;45.414;11.084;2023-03-03T05:03:06;13.07;;;5.60;;
42096;SDS011;27754;45.414;11.084;2023-03-03T05:05:34;12.98;;;6.10;;
42096;SDS011;27754;45.414;11.084;2023-03-03T05:08:01;9.80;;;6.53;;
42096;SDS011;27754;45.414;11.084;2023-03-03T05:10:28;10.90;;;6.07;;
42096;SDS011;27754;45.414;11.084;2023-03-03T05:12:55;12.07;;;6.15;;
42096;SDS011;27754;45.414;11.084;2023-03-03T05:15:22;13.98;;;7.32;;
42096;SDS011;27754;45.414;11.084;2023-03-03T05:17:49;11.32;;;6.95;;
42096;SDS011;27754;45.414;11.084;2023-03-03T05:20:18;12.85;;;7.05;;
42096;SDS011;27754;45.414;11.084;2023-03-03T05:22:45;13.25;;;7.20;;
42096;SDS011;27754;45.414;11.084;2023-03-03T05:25:12;13.52;;;7.35;;
42096;SDS011;27754;45.414;11.084;2023-03-03T05:27:39;11.18;;;6.53;;
42096;SDS011;27754;45.414;11.084;2023-03-03T05:30:07;16.98;;;7.80;;
42096;SDS011;27754;45.414;11.084;2023-03-03T05:32:34;15.57;;;7.63;;
42096;SDS011;27754;45.414;11.084;2023-03-03T05:35:01;17.58;;;7.57;;
42096;SDS011;27754;45.414;11.084;2023-03-03T05:37:29;15.00;;;7.60;;
42096;SDS011;27754;45.414;11.084;2023-03-03T05:39:56;14.30;;;7.57;;
42096;SDS011;27754;45.414;11.084;2023-03-03T05:42:23;20.42;;;8.50;;
42096;SDS011;27754;45.414;11.084;2023-03-03T05:44:50;17.92;;;8.27;;
42096;SDS011;27754;45.414;11.084;2023-03-03T05:47:17;15.88;;;8.30;;
42096;SDS011;27754;45.414;11.084;2023-03-03T05:49:44;17.30;;;8.32;;
42096;SDS011;27754;45.414;11.084;2023-03-03T05:52:11;18.60;;;9.55;;
42096;SDS011;27754;45.414;11.084;2023-03-03T05:54:38;16.60;;;9.68;;
42096;SDS011;27754;45.414;11.084;2023-03-03T05:57:05;18.27;;;10.90;;
42096;SDS011;27754;45.414;11.084;2023-03-03T05:59:32;24.20;;;12.55;;
42096;SDS011;27754;45.414;11.084;2023-03-03T06:01:59;18.98;;;13.10;;
42096;SDS011;27754;45.414;11.084;2023-03-03T06:04:26;16.08;;;11.68;;
42096;SDS011;27754;45.414;11.084;2023-03-03T06:06:53;18.50;;;12.27;;
42096;SDS011;27754;45.414;11.084;2023-03-03T06:09:20;17.67;;;11.38;;
42096;SDS011;27754;45.414;11.084;2023-03-03T06:11:46;18.08;;;12.00;;
42096;SDS011;27754;45.414;11.084;2023-03-03T06:14:13;15.55;;;10.75;;
42096;SDS011;27754;45.414;11.084;2023-03-03T06:16:40;15.13;;;10.63;;
42096;SDS011;27754;45.414;11.084;2023-03-03T06:19:07;17.33;;;10.55;;
42096;SDS011;27754;45.414;11.084;2023-03-03T06:21:34;17.05;;;9.25;;
42096;SDS011;27754;45.414;11.084;2023-03-03T06:24:01;17.17;;;10.65;;
42096;SDS011;27754;45.414;11.084;2023-03-03T06:26:28;15.02;;;9.55;;
42096;SDS011;27754;45.414;11.084;2023-03-03T06:28:56;23.23;;;11.00;;
42096;SDS011;27754;45.414;11.084;2023-03-03T06:31:23;17.75;;;10.20;;
42096;SDS011;27754;45.414;11.084;2023-03-03T06:33:51;18.90;;;9.55;;
42096;SDS011;27754;45.414;11.084;2023-03-03T06:36:18;20.25;;;10.18;;
42096;SDS011;27754;45.414;11.084;2023-03-03T06:38:45;24.05;;;10.85;;
42096;SDS011;27754;45.414;11.084;2023-03-03T06:41:12;18.92;;;10.13;;
42096;SDS011;27754;45.414;11.084;2023-03-03T06:43:39;18.30;;;9.80;;
42096;SDS011;27754;45.414;11.084;2023-03-03T06:46:06;14.52;;;9.70;;
42096;SDS011;27754;45.414;11.084;2023-03-03T06:48:34;21.33;;;9.95;;
42096;SDS011;27754;45.414;11.084;2023-03-03T06:51:01;21.60;;;9.55;;
42096;SDS011;27754;45.414;11.084;2023-03-03T06:53:34;19.27;;;11.63;;
42096;SDS011;27754;45.414;11.084;2023-03-03T06:56:06;32.72;;;16.27;;
42096;SDS011;27754;45.414;11.084;2023-03-03T06:58:34;20.73;;;11.82;;
42096;SDS011;27754;45.414;11.084;2023-03-03T07:01:01;21.20;;;11.43;;
42096;SDS011;27754;45.414;11.084;2023-03-03T07:03:32;21.55;;;11.00;;
42096;SDS011;27754;45.414;11.084;2023-03-03T07:06:00;15.23;;;9.88;;
42096;SDS011;27754;45.414;11.084;2023-03-03T07:08:31;23.88;;;10.43;;
42096;SDS011;27754;45.414;11.084;2023-03-03T07:11:00;18.35;;;9.43;;
42096;SDS011;27754;45.414;11.084;2023-03-03T07:13:33;13.52;;;9.57;;
42096;SDS011;27754;45.414;11.084;2023-03-03T07:16:08;17.70;;;9.75;;
42096;SDS011;27754;45.414;11.084;2023-03-03T07:21:44;18.98;;;10.02;;
42096;SDS011;27754;45.414;11.084;2023-03-03T07:26:44;24.67;;;11.27;;
42096;SDS011;27754;45.414;11.084;2023-03-03T07:29:20;24.88;;;11.07;;
42096;SDS011;27754;45.414;11.084;2023-03-03T07:31:52;22.52;;;10.75;;
42096;SDS011;27754;45.414;11.084;2023-03-03T07:34:22;20.55;;;10.32;;
42096;SDS011;27754;45.414;11.084;2023-03-03T07:36:57;18.90;;;10.57;;
42096;SDS011;27754;45.414;11.084;2023-03-03T07:39:32;18.65;;;10.75;;
42096;SDS011;27754;45.414;11.084;2023-03-03T07:45:21;15.45;;;9.25;;
42096;SDS011;27754;45.414;11.084;2023-03-03T07:47:54;14.52;;;9.50;;
42096;SDS011;27754;45.414;11.084;2023-03-03T07:50:34;14.73;;;9.07;;
42096;SDS011;27754;45.414;11.084;2023-03-03T07:53:01;15.82;;;10.25;;
42096;SDS011;27754;45.414;11.084;2023-03-03T07:55:35;17.25;;;10.98;;
42096;SDS011;27754;45.414;11.084;2023-03-03T08:03:46;20.73;;;12.55;;
42096;SDS011;27754;45.414;11.084;2023-03-03T08:11:36;20.20;;;12.60;;
42096;SDS011;27754;45.414;11.084;2023-03-03T08:14:25;20.17;;;12.30;;
42096;SDS011;27754;45.414;11.084;2023-03-03T08:16:59;20.65;;;12.95;;
42096;SDS011;27754;45.414;11.084;2023-03-03T08:19:28;20.52;;;13.90;;
42096;SDS011;27754;45.414;11.084;2023-03-03T08:22:08;19.73;;;13.73;;
42096;SDS011;27754;45.414;11.084;2023-03-03T08:24:40;18.85;;;13.00;;
42096;SDS011;27754;45.414;11.084;2023-03-03T08:27:07;17.30;;;11.48;;
42096;SDS011;27754;45.414;11.084;2023-03-03T08:29:34;18.58;;;12.30;;
42096;SDS011;27754;45.414;11.084;2023-03-03T08:32:01;22.25;;;13.18;;
42096;SDS011;27754;45.414;11.084;2023-03-03T08:34:28;23.00;;;13.52;;
42096;SDS011;27754;45.414;11.084;2023-03-03T08:36:55;23.40;;;14.02;;
42096;SDS011;27754;45.414;11.084;2023-03-03T08:39:23;19.65;;;12.60;;
42096;SDS011;27754;45.414;11.084;2023-03-03T08:41:50;25.33;;;12.32;;
42096;SDS011;27754;45.414;11.084;2023-03-03T08:44:17;19.40;;;11.77;;
42096;SDS011;27754;45.414;11.084;2023-03-03T08:46:45;20.25;;;12.38;;
42096;SDS011;27754;45.414;11.084;2023-03-03T08:49:13;19.33;;;11.73;;
42096;SDS011;27754;45.414;11.084;2023-03-03T08:51:40;18.08;;;12.25;;
42096;SDS011;27754;45.414;11.084;2023-03-03T08:54:07;15.82;;;12.40;;
42096;SDS011;27754;45.414;11.084;2023-03-03T08:56:35;13.98;;;10.27;;
42096;SDS011;27754;45.414;11.084;2023-03-03T08:59:02;15.73;;;10.40;;
42096;SDS011;27754;45.414;11.084;2023-03-03T09:01:30;18.92;;;10.60;;
42096;SDS011;27754;45.414;11.084;2023-03-03T09:03:58;15.70;;;10.07;;
42096;SDS011;27754;45.414;11.084;2023-03-03T09:06:25;16.95;;;10.13;;
42096;SDS011;27754;45.414;11.084;2023-03-03T09:08:52;14.02;;;10.05;;
42096;SDS011;27754;45.414;11.084;2023-03-03T09:11:24;18.65;;;10.15;;
42096;SDS011;27754;45.414;11.084;2023-03-03T09:13:55;16.60;;;10.85;;
42096;SDS011;27754;45.414;11.084;2023-03-03T09:16:29;13.52;;;9.77;;
42096;SDS011;27754;45.414;11.084;2023-03-03T09:19:14;16.97;;;9.90;;
42096;SDS011;27754;45.414;11.084;2023-03-03T09:22:17;15.13;;;10.55;;
42096;SDS011;27754;45.414;11.084;2023-03-03T09:24:47;17.55;;;10.98;;
42096;SDS011;27754;45.414;11.084;2023-03-03T09:33:00;16.20;;;10.35;;
42096;SDS011;27754;45.414;11.084;2023-03-03T09:35:42;16.75;;;10.52;;
42096;SDS011;27754;45.414;11.084;2023-03-03T09:44:25;15.07;;;10.85;;
42096;SDS011;27754;45.414;11.084;2023-03-03T09:55:05;16.42;;;11.77;;
42096;SDS011;27754;45.414;11.084;2023-03-03T09:58:28;19.77;;;11.50;;
42096;SDS011;27754;45.414;11.084;2023-03-03T10:15:10;17.73;;;11.60;;
42096;SDS011;27754;45.414;11.084;2023-03-03T10:17:48;18.38;;;12.40;;
42096;SDS011;27754;45.414;11.084;2023-03-03T10:29:33;17.02;;;12.10;;
42096;SDS011;27754;45.414;11.084;2023-03-03T10:40:33;18.45;;;12.23;;
42096;SDS011;27754;45.414;11.084;2023-03-03T11:02:28;17.58;;;11.05;;
42096;SDS011;27754;45.414;11.084;2023-03-03T11:13:46;16.23;;;11.50;;
42096;SDS011;27754;45.414;11.084;2023-03-03T11:16:21;15.57;;;10.55;;
42096;SDS011;27754;45.414;11.084;2023-03-03T11:33:31;16.17;;;11.18;;
42096;SDS011;27754;45.414;11.084;2023-03-03T11:36:09;17.42;;;11.07;;
42096;SDS011;27754;45.414;11.084;2023-03-03T11:41:41;16.30;;;10.82;;
42096;SDS011;27754;45.414;11.084;2023-03-03T11:55:48;14.63;;;9.80;;
42096;SDS011;27754;45.414;11.084;2023-03-03T11:58:33;14.50;;;9.73;;
42096;SDS011;27754;45.414;11.084;2023-03-03T12:01:19;12.70;;;9.07;;
42096;SDS011;27754;45.414;11.084;2023-03-03T12:12:34;17.15;;;9.18;;
42096;SDS011;27754;45.414;11.084;2023-03-03T12:20:43;15.07;;;8.90;;
42096;SDS011;27754;45.414;11.084;2023-03-03T12:26:05;15.25;;;9.90;;
42096;SDS011;27754;45.414;11.084;2023-03-03T12:34:18;15.15;;;10.48;;
42096;SDS011;27754;45.414;11.084;2023-03-03T12:48:41;16.83;;;10.05;;
42096;SDS011;27754;45.414;11.084;2023-03-03T12:57:09;17.58;;;10.23;;
42096;SDS011;27754;45.414;11.084;2023-03-03T12:59:49;12.77;;;9.40;;
42096;SDS011;27754;45.414;11.084;2023-03-03T13:02:49;15.63;;;9.60;;
42096;SDS011;27754;45.414;11.084;2023-03-03T13:05:39;13.23;;;9.40;;
42096;SDS011;27754;45.414;11.084;2023-03-03T13:08:29;15.15;;;10.48;;
42096;SDS011;27754;45.414;11.084;2023-03-03T13:13:47;14.55;;;9.68;;
42096;SDS011;27754;45.414;11.084;2023-03-03T13:16:34;13.63;;;9.05;;
42096;SDS011;27754;45.414;11.084;2023-03-03T13:19:20;12.57;;;9.40;;
42096;SDS011;27754;45.414;11.084;2023-03-03T13:21:58;13.95;;;9.05;;
42096;SDS011;27754;45.414;11.084;2023-03-03T13:27:36;14.00;;;9.38;;
42096;SDS011;27754;45.414;11.084;2023-03-03T13:30:19;14.45;;;9.38;;
42096;SDS011;27754;45.414;11.084;2023-03-03T13:38:42;11.85;;;9.32;;
42096;SDS011;27754;45.414;11.084;2023-03-03T13:41:22;17.02;;;10.18;;
42096;SDS011;27754;45.414;11.084;2023-03-03T13:43:53;15.48;;;9.48;;
42096;SDS011;27754;45.414;11.084;2023-03-03T13:56:22;15.43;;;10.25;;
42096;SDS011;27754;45.414;11.084;2023-03-03T14:07:17;13.02;;;9.88;;
42096;SDS011;27754;45.414;11.084;2023-03-03T14:12:43;14.13;;;10.13;;
42096;SDS011;27754;45.414;11.084;2023-03-03T14:17:57;17.77;;;11.23;;
42096;SDS011;27754;45.414;11.084;2023-03-03T14:20:46;13.48;;;9.88;;
42096;SDS011;27754;45.414;11.084;2023-03-03T14:29:19;17.48;;;12.50;;
42096;SDS011;27754;45.414;11.084;2023-03-03T14:32:02;17.38;;;12.20;;
42096;SDS011;27754;45.414;11.084;2023-03-03T14:34:58;22.13;;;15.50;;
42096;SDS011;27754;45.414;11.084;2023-03-03T14:37:42;17.02;;;11.27;;
42096;SDS011;27754;45.414;11.084;2023-03-03T14:48:09;16.73;;;11.05;;
42096;SDS011;27754;45.414;11.084;2023-03-03T14:50:37;20.90;;;13.73;;
42096;SDS011;27754;45.414;11.084;2023-03-03T14:55:56;14.73;;;11.35;;
42096;SDS011;27754;45.414;11.084;2023-03-03T15:01:45;18.85;;;13.45;;
42096;SDS011;27754;45.414;11.084;2023-03-03T15:06:47;18.20;;;12.80;;
42096;SDS011;27754;45.414;11.084;2023-03-03T15:12:01;19.65;;;12.55;;
42096;SDS011;27754;45.414;11.084;2023-03-03T15:14:44;18.45;;;13.02;;
42096;SDS011;27754;45.414;11.084;2023-03-03T15:17:26;20.38;;;11.93;;
42096;SDS011;27754;45.414;11.084;2023-03-03T15:20:40;16.67;;;11.32;;
42096;SDS011;27754;45.414;11.084;2023-03-03T15:25:52;16.35;;;12.02;;
42096;SDS011;27754;45.414;11.084;2023-03-03T15:31:35;19.48;;;13.20;;
42096;SDS011;27754;45.414;11.084;2023-03-03T15:34:50;16.85;;;12.93;;
42096;SDS011;27754;45.414;11.084;2023-03-03T15:41:03;16.63;;;12.50;;
42096;SDS011;27754;45.414;11.084;2023-03-03T15:46:12;18.88;;;13.27;;
42096;SDS011;27754;45.414;11.084;2023-03-03T15:48:45;20.15;;;13.30;;
42096;SDS011;27754;45.414;11.084;2023-03-03T15:57:23;38.95;;;27.33;;
42096;SDS011;27754;45.414;11.084;2023-03-03T16:02:51;39.17;;;25.95;;
42096;SDS011;27754;45.414;11.084;2023-03-03T16:05:54;29.60;;;21.90;;
42096;SDS011;27754;45.414;11.084;2023-03-03T16:08:47;32.58;;;23.13;;
42096;SDS011;27754;45.414;11.084;2023-03-03T16:11:36;24.60;;;16.77;;
42096;SDS011;27754;45.414;11.084;2023-03-03T16:22:54;62.60;;;43.85;;
42096;SDS011;27754;45.414;11.084;2023-03-03T16:31:31;33.78;;;24.73;;
42096;SDS011;27754;45.414;11.084;2023-03-03T16:34:25;28.70;;;18.02;;
42096;SDS011;27754;45.414;11.084;2023-03-03T16:37:00;26.23;;;19.15;;
42096;SDS011;27754;45.414;11.084;2023-03-03T16:39:54;27.90;;;17.20;;
42096;SDS011;27754;45.414;11.084;2023-03-03T16:42:42;23.88;;;17.70;;
42096;SDS011;27754;45.414;11.084;2023-03-03T16:45:17;24.05;;;17.05;;
42096;SDS011;27754;45.414;11.084;2023-03-03T16:48:02;27.38;;;17.58;;
42096;SDS011;27754;45.414;11.084;2023-03-03T16:50:53;26.77;;;16.80;;
42096;SDS011;27754;45.414;11.084;2023-03-03T17:04:42;27.05;;;18.58;;
42096;SDS011;27754;45.414;11.084;2023-03-03T17:07:18;27.27;;;19.13;;
42096;SDS011;27754;45.414;11.084;2023-03-03T17:13:17;27.73;;;18.23;;
42096;SDS011;27754;45.414;11.084;2023-03-03T17:21:30;27.15;;;18.63;;
42096;SDS011;27754;45.414;11.084;2023-03-03T17:26:56;28.05;;;17.40;;
42096;SDS011;27754;45.414;11.084;2023-03-03T17:35:45;33.35;;;18.13;;
42096;SDS011;27754;45.414;11.084;2023-03-03T17:41:02;26.88;;;17.90;;
42096;SDS011;27754;45.414;11.084;2023-03-03T17:46:16;31.80;;;18.38;;
42096;SDS011;27754;45.414;11.084;2023-03-03T18:24:29;27.02;;;17.60;;
42096;SDS011;27754;45.414;11.084;2023-03-03T18:32:39;20.08;;;13.50;;
42096;SDS011;27754;45.414;11.084;2023-03-03T18:35:36;23.45;;;14.25;;
42096;SDS011;27754;45.414;11.084;2023-03-03T18:41:17;23.80;;;15.45;;
42096;SDS011;27754;45.414;11.084;2023-03-03T18:44:00;28.30;;;17.55;;
42096;SDS011;27754;45.414;11.084;2023-03-03T18:49:03;26.50;;;16.63;;
42096;SDS011;27754;45.414;11.084;2023-03-03T19:04:42;21.60;;;13.15;;
42096;SDS011;27754;45.414;11.084;2023-03-03T19:07:42;18.77;;;12.35;;
42096;SDS011;27754;45.414;11.084;2023-03-03T19:13:34;22.38;;;13.95;;
42096;SDS011;27754;45.414;11.084;2023-03-03T19:18:57;23.25;;;13.65;;
42096;SDS011;27754;45.414;11.084;2023-03-03T19:21:33;23.67;;;12.55;;
42096;SDS011;27754;45.414;11.084;2023-03-03T19:24:05;20.50;;;12.43;;
42096;SDS011;27754;45.414;11.084;2023-03-03T19:26:46;19.17;;;13.07;;
42096;SDS011;27754;45.414;11.084;2023-03-03T19:30:15;19.27;;;11.88;;
42096;SDS011;27754;45.414;11.084;2023-03-03T19:32:47;23.75;;;12.80;;
42096;SDS011;27754;45.414;11.084;2023-03-03T19:46:52;25.92;;;16.10;;
42096;SDS011;27754;45.414;11.084;2023-03-03T19:49:38;26.33;;;17.20;;
42096;SDS011;27754;45.414;11.084;2023-03-03T19:52:22;30.42;;;17.33;;
42096;SDS011;27754;45.414;11.084;2023-03-03T19:55:05;30.35;;;19.92;;
42096;SDS011;27754;45.414;11.084;2023-03-03T19:57:55;55.25;;;34.00;;
42096;SDS011;27754;45.414;11.084;2023-03-03T20:00:43;78.90;;;47.95;;
42096;SDS011;27754;45.414;11.084;2023-03-03T20:03:39;60.78;;;32.75;;
42096;SDS011;27754;45.414;11.084;2023-03-03T20:09:06;32.65;;;21.13;;
42096;SDS011;27754;45.414;11.084;2023-03-03T20:11:51;38.40;;;25.55;;
42096;SDS011;27754;45.414;11.084;2023-03-03T20:17:11;30.40;;;20.67;;
42096;SDS011;27754;45.414;11.084;2023-03-03T20:25:46;31.20;;;20.45;;
42096;SDS011;27754;45.414;11.084;2023-03-03T20:37:25;27.25;;;17.88;;
42096;SDS011;27754;45.414;11.084;2023-03-03T20:40:09;31.05;;;19.73;;
42096;SDS011;27754;45.414;11.084;2023-03-03T20:57:57;37.30;;;24.00;;
42096;SDS011;27754;45.414;11.084;2023-03-03T21:00:34;39.58;;;23.23;;
42096;SDS011;27754;45.414;11.084;2023-03-03T21:03:12;52.28;;;30.67;;
42096;SDS011;27754;45.414;11.084;2023-03-03T21:05:54;40.92;;;27.58;;
42096;SDS011;27754;45.414;11.084;2023-03-03T21:11:07;37.33;;;22.77;;
42096;SDS011;27754;45.414;11.084;2023-03-03T21:13:42;41.03;;;22.63;;
42096;SDS011;27754;45.414;11.084;2023-03-03T21:21:30;29.75;;;18.65;;
42096;SDS011;27754;45.414;11.084;2023-03-03T21:24:00;32.20;;;20.08;;
42096;SDS011;27754;45.414;11.084;2023-03-03T21:26:46;33.78;;;20.60;;
42096;SDS011;27754;45.414;11.084;2023-03-03T21:36:46;29.30;;;18.67;;
42096;SDS011;27754;45.414;11.084;2023-03-03T21:39:28;29.05;;;18.67;;
42096;SDS011;27754;45.414;11.084;2023-03-03T21:44:36;32.25;;;18.58;;
42096;SDS011;27754;45.414;11.084;2023-03-03T21:47:11;25.50;;;16.58;;
42096;SDS011;27754;45.414;11.084;2023-03-03T21:49:40;30.75;;;17.55;;
42096;SDS011;27754;45.414;11.084;2023-03-03T21:52:12;28.40;;;17.92;;
42096;SDS011;27754;45.414;11.084;2023-03-03T21:54:42;26.73;;;16.70;;
42096;SDS011;27754;45.414;11.084;2023-03-03T21:57:09;28.33;;;16.67;;
42096;SDS011;27754;45.414;11.084;2023-03-03T21:59:36;25.98;;;16.75;;
42096;SDS011;27754;45.414;11.084;2023-03-03T22:02:03;21.63;;;15.10;;
42096;SDS011;27754;45.414;11.084;2023-03-03T22:04:31;22.63;;;15.25;;
42096;SDS011;27754;45.414;11.084;2023-03-03T22:06:59;23.85;;;15.43;;
42096;SDS011;27754;45.414;11.084;2023-03-03T22:09:26;27.65;;;14.93;;
42096;SDS011;27754;45.414;11.084;2023-03-03T22:11:53;20.67;;;13.27;;
42096;SDS011;27754;45.414;11.084;2023-03-03T22:14:21;23.20;;;13.63;;
42096;SDS011;27754;45.414;11.084;2023-03-03T22:16:48;21.65;;;12.90;;
42096;SDS011;27754;45.414;11.084;2023-03-03T22:19:15;20.35;;;14.18;;
42096;SDS011;27754;45.414;11.084;2023-03-03T22:21:42;24.85;;;13.93;;
42096;SDS011;27754;45.414;11.084;2023-03-03T22:24:09;24.55;;;15.38;;
42096;SDS011;27754;45.414;11.084;2023-03-03T22:26:36;25.20;;;15.15;;